Time;durP1;ratioP1;P1;durP2;ratioP2;P2;SDS_P1;SDS_P2;PMS_P1;PMS_P2;Temp;Humidity;BMP_temperature;BMP_pressure;BME280_temperature;BME280_humidity;BME280_pressure;Samples;Min_cycle;Max_cycle;Signal;HPM_P1;HPM_P2
2022/04/29 00:00:24;;;;;;;7.38;4.18;;;;;;;12.11;80.90;101818.53;5013774;28;20049;-64
2022/04/29 00:02:53;;;;;;;8.82;5.95;;;;;;;12.14;80.24;101815.25;5014509;28;20064;-64
2022/04/29 00:05:21;;;;;;;7.38;4.97;;;;;;;12.28;78.91;101816.50;5014922;28;20045;-65
2022/04/29 00:07:51;;;;;;;7.97;5.38;;;;;;;12.36;79.29;101816.00;5014696;28;20492;-64
2022/04/29 00:10:20;;;;;;;8.43;5.28;;;;;;;12.42;78.37;101821.53;5014365;28;20054;-65
2022/04/29 00:12:48;;;;;;;8.27;5.57;;;;;;;12.41;78.58;101817.16;5014282;28;20049;-65
2022/04/29 00:15:18;;;;;;;5.80;4.70;;;;;;;12.40;79.36;101813.56;5014473;28;20061;-65
2022/04/29 00:17:47;;;;;;;8.68;5.22;;;;;;;12.29;80.62;101823.63;5014607;28;20057;-65
2022/04/29 00:20:15;;;;;;;7.50;4.97;;;;;;;12.18;81.14;101822.69;5014520;28;20369;-65
2022/04/29 00:22:44;;;;;;;7.60;5.38;;;;;;;11.94;81.83;101812.00;5014358;28;20042;-65
2022/04/29 00:25:12;;;;;;;7.47;5.43;;;;;;;11.91;82.56;101822.69;5014180;28;20065;-65
2022/04/29 00:27:40;;;;;;;5.45;4.80;;;;;;;11.86;82.07;101819.88;5014228;28;20054;-65
2022/04/29 00:30:11;;;;;;;8.18;6.35;;;;;;;11.80;82.67;101813.53;5014544;28;20156;-65
2022/04/29 00:32:40;;;;;;;8.18;5.80;;;;;;;11.83;82.90;101813.00;5013079;28;20512;-65
2022/04/29 00:35:18;;;;;;;7.57;5.13;;;;;;;11.98;82.37;101809.59;5014245;28;20061;-65
2022/04/29 00:38:15;;;;;;;7.43;5.03;;;;;;;11.94;81.96;101811.19;5014387;28;20405;-64
2022/04/29 00:40:58;;;;;;;9.48;5.32;;;;;;;11.88;81.79;101807.56;5013743;28;20065;-65
2022/04/29 00:43:26;;;;;;;10.38;5.57;;;;;;;11.90;82.21;101810.06;5028831;28;20065;-65
2022/04/29 00:45:54;;;;;;;8.18;5.35;;;;;;;11.79;83.69;101804.44;5013918;28;20057;-64
2022/04/29 00:48:22;;;;;;;9.07;4.88;;;;;;;11.75;84.75;101808.81;5013633;28;20050;-65
2022/04/29 00:50:50;;;;;;;9.77;5.32;;;;;;;11.65;84.62;101805.94;5013702;28;20049;-65
2022/04/29 00:53:19;;;;;;;7.70;5.22;;;;;;;11.55;84.78;101807.47;5013946;28;20054;-65
2022/04/29 00:55:48;;;;;;;9.02;5.47;;;;;;;11.60;85.02;101805.88;5013432;28;20060;-65
2022/04/29 00:58:22;;;;;;;7.35;4.68;;;;;;;11.61;84.76;101802.06;5012235;28;20552;-64
2022/04/29 01:00:50;;;;;;;6.60;5.28;;;;;;;11.59;84.66;101805.06;5012095;28;20054;-64
2022/04/29 01:03:19;;;;;;;5.68;4.75;;;;;;;11.62;84.02;101811.94;5013141;28;20050;-65
2022/04/29 01:05:49;;;;;;;5.85;4.30;;;;;;;11.60;83.59;101806.72;5012209;28;20065;-65
2022/04/29 01:08:17;;;;;;;8.65;5.40;;;;;;;11.60;84.41;101809.47;5013694;28;20046;-65
2022/04/29 01:10:47;;;;;;;8.77;5.07;;;;;;;11.56;85.02;101809.16;5013295;28;20061;-65
2022/04/29 01:13:16;;;;;;;6.97;5.00;;;;;;;11.50;85.36;101801.97;5013365;28;20058;-65
2022/04/29 01:15:45;;;;;;;8.95;5.80;;;;;;;11.48;85.33;101804.13;5013572;28;20397;-65
2022/04/29 01:18:16;;;;;;;7.10;5.00;;;;;;;11.47;85.25;101802.47;5011684;28;20508;-64
2022/04/29 01:20:44;;;;;;;11.00;4.82;;;;;;;11.46;85.63;101802.72;5013309;28;20049;-64
2022/04/29 01:23:13;;;;;;;6.25;4.40;;;;;;;11.48;85.86;101806.84;5011749;28;20064;-65
2022/04/29 01:25:42;;;;;;;7.88;4.95;;;;;;;11.55;85.74;101809.41;5028606;28;20038;-65
2022/04/29 01:28:10;;;;;;;7.40;5.32;;;;;;;11.54;85.04;101805.03;5011590;28;20061;-65
2022/04/29 01:30:42;;;;;;;7.88;4.80;;;;;;;11.61;84.19;101796.56;5028207;28;20398;-65
2022/04/29 01:33:13;;;;;;;12.23;5.30;;;;;;;11.67;81.47;101803.78;5013130;28;20045;-65
2022/04/29 01:35:41;;;;;;;6.65;4.43;;;;;;;11.73;80.75;101797.25;5027742;28;20053;-65
2022/04/29 01:38:13;;;;;;;5.88;4.18;;;;;;;11.86;78.28;101800.66;5011398;28;20057;-65
2022/04/29 01:40:42;;;;;;;4.85;3.75;;;;;;;12.05;75.99;101798.44;5012773;28;20056;-65
2022/04/29 01:43:14;;;;;;;5.70;3.47;;;;;;;12.25;73.25;101788.72;5011117;28;20409;-65
2022/04/29 01:45:42;;;;;;;5.25;3.90;;;;;;;12.53;72.49;101800.47;5012904;28;20652;-65
2022/04/29 01:48:24;;;;;;;3.63;3.30;;;;;;;12.71;67.15;101791.00;5011400;28;20382;-65
2022/04/29 01:51:10;;;;;;;4.22;3.10;;;;;;;12.82;66.27;101798.22;5027206;28;20050;-65
2022/04/29 01:53:38;;;;;;;3.45;2.67;;;;;;;12.92;64.67;101802.09;5012702;28;20077;-65
2022/04/29 01:56:06;;;;;;;6.47;3.20;;;;;;;12.98;64.03;101799.13;5027491;28;20050;-65
2022/04/29 01:58:34;;;;;;;3.78;3.00;;;;;;;13.03;63.58;101795.56;5011133;28;20046;-65
2022/04/29 02:01:02;;;;;;;3.35;2.83;;;;;;;13.05;63.04;101796.13;5027400;28;20057;-64
2022/04/29 02:03:30;;;;;;;4.00;2.75;;;;;;;13.06;63.14;101786.81;5027435;28;20544;-64
2022/04/29 02:05:59;;;;;;;6.47;3.15;;;;;;;13.05;63.18;101790.63;5027470;28;20050;-65
2022/04/29 02:08:27;;;;;;;3.80;3.20;;;;;;;13.03;64.09;101790.91;5026648;28;20053;-65
2022/04/29 02:10:55;;;;;;;4.30;3.13;;;;;;;13.05;62.42;101787.88;5012482;28;20049;-65
2022/04/29 02:13:27;;;;;;;4.07;3.13;;;;;;;13.08;62.25;101783.78;5010397;28;20042;-65
2022/04/29 02:16:16;;;;;;;3.28;2.90;;;;;;;13.14;61.60;101788.19;5010702;28;20050;-65
2022/04/29 02:18:55;;;;;;;3.33;2.42;;;;;;;13.28;60.11;101780.28;5010876;28;20055;-64
2022/04/29 02:21:24;;;;;;;4.20;2.75;;;;;;;13.36;59.14;101785.28;5010888;28;20054;-65
2022/04/29 02:23:55;;;;;;;3.03;2.67;;;;;;;13.43;59.53;101776.78;4996891;28;20053;-65
2022/04/29 02:26:23;;;;;;;4.18;2.70;;;;;;;13.35;60.26;101772.63;5011790;28;20049;-65
2022/04/29 02:28:51;;;;;;;6.13;3.13;;;;;;;13.35;60.32;101772.63;5007267;28;20065;-64
2022/04/29 02:31:18;;;;;;;3.13;2.83;;;;;;;13.33;59.95;101772.06;5010064;28;20050;-65
2022/04/29 02:33:47;;;;;;;3.67;2.20;;;;;;;13.41;59.25;101770.72;5010602;28;20054;-63
2022/04/29 02:36:16;;;;;;;3.75;3.00;;;;;;;13.35;59.92;101767.13;5011860;28;20093;-65
2022/04/29 02:38:44;;;;;;;3.92;2.88;;;;;;;13.43;58.62;101766.59;5027065;28;20060;-65
2022/04/29 02:41:12;;;;;;;3.10;2.42;;;;;;;13.42;58.41;101767.72;5010298;28;20057;-65
2022/04/29 02:43:41;;;;;;;3.30;3.00;;;;;;;13.38;58.85;101766.59;5010336;28;20057;-64
2022/04/29 02:46:09;;;;;;;3.22;2.60;;;;;;;13.31;58.91;101760.53;5012032;28;20053;-64
2022/04/29 02:48:37;;;;;;;2.47;2.20;;;;;;;13.29;59.59;101757.19;5027025;28;20065;-65
2022/04/29 02:51:06;;;;;;;4.05;2.90;;;;;;;13.27;58.92;101757.50;5012318;28;20497;-64
2022/04/29 02:53:33;;;;;;;4.32;2.92;;;;;;;13.22;60.38;101754.72;5012162;28;20038;-65
2022/04/29 02:56:02;;;;;;;3.50;2.60;;;;;;;13.20;60.66;101756.88;5010443;28;20041;-64
2022/04/29 02:58:40;;;;;;;3.85;2.60;;;;;;;13.25;59.60;101756.09;5011913;28;20081;-65
2022/04/29 03:01:08;;;;;;;4.40;2.70;;;;;;;13.19;61.24;101768.19;5010276;28;20046;-65
2022/04/29 03:03:38;;;;;;;4.63;2.63;;;;;;;13.11;60.00;101767.56;5010664;28;20045;-64
2022/04/29 03:06:06;;;;;;;3.25;2.95;;;;;;;13.15;59.69;101773.38;5010572;28;20057;-64
2022/04/29 03:08:34;;;;;;;3.00;2.45;;;;;;;13.34;59.08;101765.47;5010445;28;20042;-64
2022/04/29 03:11:01;;;;;;;4.30;2.53;;;;;;;13.30;59.59;101764.38;5026316;28;20054;-64
2022/04/29 03:13:30;;;;;;;2.80;2.35;;;;;;;13.22;60.40;101762.97;5011816;28;20050;-65
2022/04/29 03:16:11;;;;;;;3.88;2.67;;;;;;;13.21;59.64;101758.56;5010551;28;20058;-65
2022/04/29 03:18:40;;;;;;;2.83;2.47;;;;;;;13.15;60.15;101760.44;5010102;28;20050;-65
2022/04/29 03:21:08;;;;;;;3.15;2.47;;;;;;;13.09;60.56;101747.78;5010267;28;20046;-64
2022/04/29 03:23:37;;;;;;;5.13;3.00;;;;;;;13.10;61.57;101754.94;5023742;28;20057;-65
2022/04/29 03:26:05;;;;;;;2.97;2.63;;;;;;;13.11;61.40;101753.81;5009967;28;20054;-65
2022/04/29 03:28:34;;;;;;;6.00;2.50;;;;;;;13.12;61.00;101747.25;5009759;28;20053;-65
2022/04/29 03:31:02;;;;;;;3.10;2.80;;;;;;;13.14;60.67;101750.56;5010507;28;20500;-64
2022/04/29 03:33:50;;;;;;;3.92;3.53;;;;;;;13.23;60.77;101747.28;5011274;28;20085;-65
2022/04/29 03:36:19;;;;;;;4.53;2.63;;;;;;;13.25;61.41;101740.41;5015602;28;20423;-63
2022/04/29 03:38:53;;;;;;;2.80;2.60;;;;;;;13.41;60.99;101751.47;5015411;28;20046;-65
2022/04/29 03:41:21;;;;;;;3.45;2.85;;;;;;;13.38;63.00;101743.75;5029053;28;20057;-64
2022/04/29 03:43:55;;;;;;;;;;;;;;;13.25;63.17;101748.66;5010903;28;20761;-65
2022/04/29 03:46:29;;;;;;;3.15;2.58;;;;;;;13.19;64.14;101755.25;5023504;28;19933;-65
2022/04/29 03:52:08;;;;;;;4.57;2.85;;;;;;;13.03;65.49;101757.94;5013474;28;20045;-64
2022/04/29 03:54:36;;;;;;;3.25;2.42;;;;;;;13.01;65.69;101754.63;5012644;28;20415;-65
2022/04/29 03:57:06;;;;;;;2.80;2.60;;;;;;;12.97;65.12;101747.19;5013358;28;20048;-64
2022/04/29 03:59:34;;;;;;;3.88;2.95;;;;;;;12.98;64.77;101757.06;5010160;28;20400;-65
2022/04/29 04:02:05;;;;;;;3.88;3.00;;;;;;;13.05;63.47;101757.66;5025021;28;20050;-65
2022/04/29 04:04:33;;;;;;;2.97;2.67;;;;;;;13.06;65.28;101753.00;5019556;28;20053;-65
2022/04/29 04:07:02;;;;;;;6.85;4.05;;;;;;;13.11;64.15;101753.81;5012554;28;20055;-65
2022/04/29 04:09:57;;;;;;;3.22;2.85;;;;;;;13.13;65.13;101759.91;5011084;28;20404;-65
2022/04/29 04:12:25;;;;;;;4.38;3.05;;;;;;;13.14;65.18;101755.22;5024754;28;20053;-65
2022/04/29 04:15:21;;;;;;;4.75;3.00;;;;;;;13.11;66.89;101759.31;5013570;28;20050;-65
2022/04/29 04:17:50;;;;;;;3.80;2.85;;;;;;;13.26;63.54;101764.06;5012140;28;20058;-65
2022/04/29 04:20:18;;;;;;;3.85;3.05;;;;;;;13.26;65.23;101757.75;5014057;28;20489;-65
2022/04/29 04:22:58;;;;;;;4.03;2.85;;;;;;;13.37;64.98;101759.44;5012654;28;20421;-64
2022/04/29 04:25:26;;;;;;;4.57;3.17;;;;;;;13.48;64.79;101768.56;5014155;28;20058;-64
2022/04/29 04:27:54;;;;;;;3.20;2.90;;;;;;;13.39;66.00;101768.25;5001988;28;20062;-65
2022/04/29 04:30:31;;;;;;;3.80;3.08;;;;;;;13.30;66.16;101776.19;5008129;28;20053;-64
2022/04/29 04:32:59;;;;;;;3.97;3.15;;;;;;;13.25;66.93;101780.84;5010106;28;20050;-64
2022/04/29 04:35:28;;;;;;;3.40;3.10;;;;;;;13.30;67.12;101778.13;5013856;28;20068;-65
2022/04/29 04:37:56;;;;;;;5.30;3.50;;;;;;;13.42;68.43;101784.22;5028889;28;20523;-64
2022/04/29 04:40:43;;;;;;;3.17;2.90;;;;;;;13.37;67.54;101781.44;5025413;28;20050;-64
2022/04/29 04:43:16;;;;;;;3.08;2.38;;;;;;;13.42;68.35;101786.97;5012317;28;20454;-64
2022/04/29 04:45:46;;;;;;;3.30;3.00;;;;;;;13.44;68.29;101786.66;5010462;28;20058;-64
2022/04/29 04:48:34;;;;;;;2.80;2.60;;;;;;;13.47;67.71;101779.84;4985425;28;20053;-65
2022/04/29 04:51:14;;;;;;;3.83;3.53;;;;;;;13.60;67.44;101784.00;5013635;28;20046;-65
2022/04/29 04:53:47;;;;;;;4.80;3.17;;;;;;;13.68;66.39;101777.97;5008100;28;20046;-64
2022/04/29 04:56:15;;;;;;;6.43;4.43;;;;;;;13.62;66.51;101776.31;5013016;28;20073;-63
2022/04/29 04:58:43;;;;;;;6.15;4.38;;;;;;;13.56;68.85;101780.97;5026157;28;20053;-64
2022/04/29 05:01:11;;;;;;;9.93;4.78;;;;;;;13.56;67.75;101781.81;5009856;28;20061;-63
2022/04/29 05:03:58;;;;;;;5.03;3.45;;;;;;;13.56;66.40;101783.72;5012201;28;20050;-63
2022/04/29 05:06:44;;;;;;;3.42;3.13;;;;;;;13.67;67.47;101790.91;5012486;28;20408;-64
2022/04/29 05:09:14;;;;;;;6.25;3.90;;;;;;;13.92;66.99;101785.72;5010309;28;20628;-63
2022/04/29 05:11:42;;;;;;;4.18;3.15;;;;;;;14.06;65.45;101789.59;5008283;28;20042;-64
2022/04/29 05:15:01;;;;;;;3.75;3.20;;;;;;;14.13;65.48;101781.06;5002830;28;20614;-65
2022/04/29 05:17:31;;;;;;;6.05;3.47;;;;;;;14.20;65.60;101787.13;5024911;28;20049;-64
2022/04/29 05:20:17;;;;;;;6.28;3.55;;;;;;;14.28;64.76;101784.94;5009960;28;20069;-63
2022/04/29 05:22:48;;;;;;;4.18;3.45;;;;;;;14.41;65.32;101789.06;5026320;28;20070;-64
2022/04/29 05:25:16;;;;;;;3.88;2.85;;;;;;;14.50;64.97;101788.22;5011265;28;20057;-65
2022/04/29 05:28:04;;;;;;;7.55;3.38;;;;;;;14.52;64.24;101786.00;5012169;28;20516;-64
2022/04/29 05:30:52;;;;;;;3.95;3.25;;;;;;;14.60;63.41;101789.28;4993108;28;20046;-64
2022/04/29 05:33:27;;;;;;;5.25;2.97;;;;;;;14.63;62.76;101792.31;5012804;28;20065;-65
2022/04/29 05:36:14;;;;;;;3.15;2.83;;;;;;;14.80;55.79;101790.41;5011963;28;20053;-64
2022/04/29 05:44:17;;;;;;;3.40;3.10;;;;;;;15.29;52.95;101786.09;5013080;28;20062;-67
2022/04/29 05:46:44;;;;;;;2.88;2.63;;;;;;;15.50;52.65;101806.13;5013135;28;20412;-67
2022/04/29 05:49:13;;;;;;;4.22;2.40;;;;;;;15.64;53.17;101795.31;5011350;28;20050;-67
2022/04/29 05:51:45;;;;;;;3.65;2.63;;;;;;;15.74;50.77;101799.94;5011823;28;20038;-66
2022/04/29 05:54:15;;;;;;;4.63;2.58;;;;;;;15.83;50.35;101800.16;5027932;28;20060;-67
2022/04/29 05:56:43;;;;;;;2.72;2.25;;;;;;;15.90;50.65;101808.13;4997524;28;20058;-67
2022/04/29 05:59:14;;;;;;;3.30;2.42;;;;;;;16.01;48.67;101812.50;4995268;28;20053;-67
2022/04/29 06:02:00;;;;;;;2.58;2.10;;;;;;;16.12;51.14;101810.47;5012350;28;20393;-66
2022/04/29 06:04:37;;;;;;;3.90;2.50;;;;;;;16.08;46.50;101806.66;5027628;28;20035;-67
2022/04/29 06:07:05;;;;;;;5.13;2.55;;;;;;;16.05;44.95;101809.97;5012622;28;20404;-67
2022/04/29 06:09:33;;;;;;;4.00;2.17;;;;;;;16.17;45.92;101815.97;5027612;28;20052;-66
2022/04/29 06:12:02;;;;;;;4.63;2.40;;;;;;;16.26;43.56;101816.19;5023196;28;20413;-67
2022/04/29 06:14:38;;;;;;;2.38;1.88;;;;;;;16.44;44.31;101819.34;5007587;28;20061;-67
2022/04/29 06:17:24;;;;;;;2.30;2.10;;;;;;;16.52;42.03;101819.53;5011991;28;20416;-67
2022/04/29 06:20:11;;;;;;;3.67;2.55;;;;;;;16.54;40.30;101816.50;5011716;28;20064;-67
2022/04/29 06:23:17;;;;;;;2.40;2.05;;;;;;;16.64;40.36;101813.66;5011477;28;20050;-67
2022/04/29 06:25:45;;;;;;;2.33;2.05;;;;;;;16.71;42.37;101818.00;5027168;28;20050;-68
2022/04/29 06:28:14;;;;;;;3.05;2.22;;;;;;;16.76;40.82;101823.47;5011557;28;20042;-67
2022/04/29 06:30:43;;;;;;;2.50;2.30;;;;;;;16.62;37.41;101826.91;5027150;28;20046;-68
2022/04/29 06:33:38;;;;;;;3.25;2.15;;;;;;;16.72;40.02;101822.41;5011729;28;20034;-67
2022/04/29 06:36:13;;;;;;;2.55;1.70;;;;;;;16.83;40.65;101814.84;5026522;28;20049;-68
2022/04/29 06:38:44;;;;;;;4.80;2.53;;;;;;;16.77;38.77;101825.94;5010757;28;20062;-67
2022/04/29 06:41:31;;;;;;;2.17;1.98;;;;;;;16.81;37.50;101820.66;5012132;28;20053;-67
2022/04/29 06:44:04;;;;;;;2.40;2.00;;;;;;;16.91;39.32;101819.72;5011959;28;20062;-67
2022/04/29 06:46:55;;;;;;;2.47;2.25;;;;;;;17.02;37.54;101829.56;4992896;28;20061;-67
2022/04/29 06:49:43;;;;;;;1.73;1.63;;;;;;;17.12;37.78;101825.91;4991192;28;20053;-68
2022/04/29 06:52:30;;;;;;;2.13;1.70;;;;;;;17.19;36.14;101823.59;5012114;28;20049;-68
2022/04/29 06:55:21;;;;;;;1.90;1.67;;;;;;;17.18;36.24;101837.72;5008520;28;20058;-67
2022/04/29 06:57:49;;;;;;;2.53;2.20;;;;;;;17.23;37.08;101834.06;5010275;28;20505;-67
2022/04/29 07:00:19;;;;;;;1.77;1.67;;;;;;;17.30;36.72;101829.00;5011817;28;20046;-67
2022/04/29 07:02:47;;;;;;;2.72;2.00;;;;;;;17.33;37.12;101836.72;5026616;28;20054;-67
2022/04/29 07:05:16;;;;;;;6.15;2.10;;;;;;;17.34;36.13;101838.34;5026644;28;20069;-67
2022/04/29 07:07:44;;;;;;;2.90;2.05;;;;;;;17.25;34.30;101846.47;5026448;28;20068;-67
2022/04/29 07:10:35;;;;;;;1.83;1.73;;;;;;;17.24;34.05;101831.00;5015835;28;20053;-67
2022/04/29 07:13:21;;;;;;;2.15;1.63;;;;;;;17.27;34.17;101826.81;5015520;28;20417;-67
2022/04/29 07:15:50;;;;;;;3.20;1.70;;;;;;;17.23;34.42;101834.06;5013907;28;20069;-68
2022/04/29 07:18:37;;;;;;;3.15;1.80;;;;;;;17.26;34.58;101826.00;5015353;28;20078;-67
2022/04/29 07:21:05;;;;;;;2.38;2.05;;;;;;;17.32;33.36;101826.78;5013676;28;20053;-68
2022/04/29 07:23:34;;;;;;;2.22;2.03;;;;;;;17.31;34.36;101827.88;5013908;28;20405;-67
2022/04/29 07:26:02;;;;;;;2.45;1.73;;;;;;;17.25;34.67;101826.31;5030343;28;20046;-68
2022/04/29 07:28:30;;;;;;;2.92;2.15;;;;;;;17.41;33.71;101832.47;5015186;28;20049;-68
2022/04/29 07:31:00;;;;;;;2.38;2.13;;;;;;;17.47;34.25;101836.81;5030328;28;20129;-68
2022/04/29 07:33:54;;;;;;;3.67;1.67;;;;;;;17.46;33.58;101847.06;4991815;28;20049;-68
2022/04/29 07:42:24;;;;;;;1.80;1.70;;;;;;;17.59;33.66;101836.38;5030373;28;20054;-67
2022/04/29 07:44:52;;;;;;;4.45;1.70;;;;;;;17.62;32.83;101837.72;5015255;28;20400;-68
2022/04/29 07:47:47;;;;;;;4.70;1.83;;;;;;;17.68;33.95;101842.06;5015028;28;20054;-68
2022/04/29 07:50:30;;;;;;;3.63;2.00;;;;;;;17.82;32.52;101836.63;5030057;28;20400;-67
2022/04/29 07:53:00;;;;;;;2.30;2.15;;;;;;;17.91;32.32;101840.38;5012889;28;20400;-68
2022/04/29 07:55:29;;;;;;;3.53;2.03;;;;;;;17.92;32.95;101833.72;5013164;28;20050;-68
2022/04/29 07:57:57;;;;;;;1.77;1.58;;;;;;;17.95;33.81;101835.88;5030151;28;20038;-68
2022/04/29 08:00:25;;;;;;;2.47;2.28;;;;;;;18.03;33.98;101837.13;5029688;28;20061;-67
2022/04/29 08:02:54;;;;;;;2.30;2.10;;;;;;;18.07;34.18;101826.31;5013014;28;20396;-68
2022/04/29 08:05:42;;;;;;;2.08;1.98;;;;;;;18.17;34.29;101828.94;5014457;28;20053;-68
2022/04/29 08:08:12;;;;;;;3.65;2.22;;;;;;;18.17;32.58;101826.16;5012756;28;20054;-68
2022/04/29 08:10:39;;;;;;;1.85;1.73;;;;;;;18.13;33.70;101827.88;5013504;28;20508;-68
2022/04/29 08:13:08;;;;;;;2.80;2.05;;;;;;;18.12;32.87;101829.84;5013066;28;20056;-68
2022/04/29 08:15:54;;;;;;;1.88;1.77;;;;;;;18.12;34.00;101829.84;5014844;28;20507;-67
2022/04/29 08:18:55;;;;;;;3.53;2.42;;;;;;;18.05;33.77;101825.78;5002087;28;20393;-68
2022/04/29 08:21:40;;;;;;;1.80;1.70;;;;;;;18.13;32.80;101825.09;5028130;28;20054;-68
2022/04/29 08:24:08;;;;;;;2.50;1.65;;;;;;;18.23;33.78;101833.25;5029285;28;20065;-68
2022/04/29 08:26:36;;;;;;;2.08;1.98;;;;;;;18.38;34.10;101828.59;5029585;28;20052;-68
2022/04/29 08:29:04;;;;;;;1.58;1.48;;;;;;;18.35;32.66;101826.44;5013029;28;20049;-66
2022/04/29 08:31:32;;;;;;;1.95;1.70;;;;;;;18.41;34.32;101830.75;5029615;28;20485;-65
2022/04/29 08:34:00;;;;;;;2.28;1.77;;;;;;;18.39;32.86;101830.25;5028809;28;20050;-66
2022/04/29 08:36:30;;;;;;;1.95;1.75;;;;;;;18.43;33.81;101822.94;5013087;28;20410;-66
2022/04/29 08:38:59;;;;;;;2.13;2.03;;;;;;;18.37;33.79;101824.16;5028816;28;20497;-66
2022/04/29 08:41:30;;;;;;;2.10;2.00;;;;;;;18.47;33.87;101828.75;5012975;28;20491;-66
2022/04/29 08:43:58;;;;;;;2.95;2.38;;;;;;;18.51;33.90;101824.22;5012482;28;20046;-66
2022/04/29 08:46:44;;;;;;;2.40;1.75;;;;;;;18.48;35.04;101833.97;5029014;28;20500;-66
2022/04/29 08:49:24;;;;;;;2.75;1.80;;;;;;;18.53;35.42;101820.00;5012193;28;20396;-66
2022/04/29 08:51:53;;;;;;;4.43;1.88;;;;;;;18.57;34.00;101830.50;5014246;28;20049;-66
2022/04/29 09:00:00;;;;;;;2.63;2.42;;;;;;;18.85;34.06;101819.44;5028450;28;20046;-66
2022/04/29 09:02:36;;;;;;;1.92;1.77;;;;;;;18.81;34.08;101813.69;5013666;28;20050;-66
2022/04/29 09:05:10;;;;;;;2.22;2.10;;;;;;;18.73;34.70;101806.91;5013492;28;20382;-66
2022/04/29 09:07:57;;;;;;;3.67;2.15;;;;;;;18.74;34.72;101804.97;5013546;28;20073;-66
2022/04/29 09:10:34;;;;;;;2.25;1.88;;;;;;;18.89;35.08;101789.97;5013537;28;20050;-66
2022/04/29 09:13:11;;;;;;;2.83;2.28;;;;;;;18.99;34.97;101792.56;5012946;28;20050;-66
2022/04/29 09:15:51;;;;;;;2.65;2.45;;;;;;;19.11;34.20;101786.50;5013897;28;20042;-66
2022/04/29 09:18:35;;;;;;;2.10;1.70;;;;;;;19.24;34.56;101789.59;5013594;28;20057;-66
2022/04/29 09:21:07;;;;;;;4.85;2.20;;;;;;;19.30;34.92;101783.63;5013373;28;20061;-66
2022/04/29 09:23:43;;;;;;;2.30;2.10;;;;;;;19.34;34.81;101789.38;5013166;28;20046;-66
2022/04/29 09:26:35;;;;;;;2.50;1.90;;;;;;;19.20;31.10;101781.91;5013250;28;20042;-66
2022/04/29 09:29:21;;;;;;;2.03;1.83;;;;;;;19.12;33.29;101784.56;5002601;28;20050;-66
2022/04/29 09:32:11;;;;;;;3.13;1.88;;;;;;;19.22;33.29;101780.75;4991622;28;20408;-66
2022/04/29 09:34:55;;;;;;;2.63;1.92;;;;;;;19.33;32.78;101780.25;5013171;28;20054;-66
2022/04/29 09:37:25;;;;;;;2.67;2.47;;;;;;;19.40;32.86;101770.66;5013025;28;20061;-66
2022/04/29 09:40:03;;;;;;;3.53;1.83;;;;;;;19.50;33.00;101764.06;5027841;28;20053;-66
2022/04/29 09:42:39;;;;;;;3.58;2.00;;;;;;;19.43;32.72;101764.47;5012879;28;20073;-67
2022/04/29 09:45:23;;;;;;;2.10;1.90;;;;;;;19.39;33.04;101763.44;5027882;28;20046;-67
2022/04/29 09:47:55;;;;;;;2.88;1.88;;;;;;;19.56;33.30;101754.50;5012692;28;20058;-67
2022/04/29 09:50:50;;;;;;;2.80;2.00;;;;;;;19.46;33.51;101747.22;5013566;28;20061;-67
2022/04/29 09:53:23;;;;;;;;;;;;;;;19.55;33.08;101750.06;5013312;28;20046;-67
2022/04/29 09:56:06;;;;;;;2.80;2.60;;;;;;;19.65;32.63;101757.34;5012531;28;19921;-67
2022/04/29 09:58:34;;;;;;;2.42;2.22;;;;;;;19.73;33.27;101740.75;5000426;28;20050;-67
2022/04/29 10:01:06;;;;;;;2.17;1.98;;;;;;;19.74;31.81;101736.00;5012271;28;20527;-67
2022/04/29 10:03:35;;;;;;;2.17;1.98;;;;;;;19.70;33.25;101744.13;4999692;28;20050;-67
2022/04/29 10:06:08;;;;;;;2.15;1.85;;;;;;;19.88;32.56;101745.13;5012496;28;20053;-67
2022/04/29 10:08:38;;;;;;;2.05;1.95;;;;;;;19.91;33.55;101737.28;4997925;28;20778;-67
2022/04/29 10:11:07;;;;;;;2.30;2.10;;;;;;;19.93;34.02;101727.50;5012649;28;20057;-67
2022/04/29 10:13:38;;;;;;;2.45;2.25;;;;;;;19.94;32.42;101728.31;5012203;28;20057;-67
2022/04/29 10:16:22;;;;;;;2.28;2.00;;;;;;;20.00;32.98;101719.56;5011758;28;20061;-67
2022/04/29 10:22:22;;;;;;;2.28;2.08;;;;;;;20.14;32.50;101713.94;5004820;28;20054;-67
2022/04/29 10:24:51;;;;;;;3.17;2.17;;;;;;;20.29;31.68;101717.44;5011329;28;20064;-67
2022/04/29 10:27:19;;;;;;;2.83;2.10;;;;;;;20.31;32.03;101712.38;5009220;28;20045;-67
2022/04/29 10:29:48;;;;;;;2.63;2.42;;;;;;;20.31;33.48;101712.38;5012010;28;20050;-67
2022/04/29 10:32:15;;;;;;;2.40;2.20;;;;;;;20.38;32.37;101721.09;5011249;28;20048;-67
2022/04/29 10:34:43;;;;;;;2.63;2.42;;;;;;;20.29;33.49;101703.56;5011905;28;20501;-67
2022/04/29 10:37:14;;;;;;;4.53;2.70;;;;;;;20.36;32.18;101705.84;5027603;28;20436;-67
2022/04/29 10:40:11;;;;;;;2.88;2.42;;;;;;;20.49;32.25;101699.38;5011684;28;20046;-67
2022/04/29 10:43:06;;;;;;;2.72;2.35;;;;;;;20.47;32.12;101698.06;4973354;28;20061;-67
2022/04/29 10:45:35;;;;;;;2.70;2.38;;;;;;;20.41;32.51;101691.81;5011662;28;20042;-67
2022/04/29 10:48:36;;;;;;;4.45;2.63;;;;;;;20.61;32.27;101693.22;5027227;28;20045;-67
2022/04/29 10:51:30;;;;;;;2.95;2.25;;;;;;;20.69;31.29;101680.47;5011352;28;20042;-67
2022/04/29 10:54:35;;;;;;;3.90;3.13;;;;;;;20.71;31.15;101674.59;5011513;28;20057;-67
2022/04/29 10:57:46;;;;;;;3.72;2.47;;;;;;;20.68;31.52;101668.53;5012312;28;20440;-67
2022/04/29 11:00:22;;;;;;;5.07;2.70;;;;;;;20.73;29.91;101670.34;5027146;28;20485;-67
2022/04/29 11:02:54;;;;;;;3.10;2.35;;;;;;;20.97;32.43;101663.53;5010004;28;20057;-67
2022/04/29 11:05:36;;;;;;;3.33;2.72;;;;;;;21.08;31.39;101672.41;5008205;28;20962;-66
2022/04/29 11:08:08;;;;;;;4.63;2.72;;;;;;;21.02;32.53;101660.59;5009346;28;20054;-66
2022/04/29 11:11:01;;;;;;;2.83;2.43;;;;;;;21.13;33.13;101668.66;5009666;28;20058;-66
2022/04/29 11:14:02;;;;;;;2.60;2.03;;;;;;;20.95;31.68;101651.94;4973500;28;20068;-66
2022/04/29 11:17:09;;;;;;;2.58;2.22;;;;;;;21.10;31.64;101656.19;5010153;28;20042;-66
2022/04/29 11:19:45;;;;;;;4.25;3.05;;;;;;;21.06;29.79;101646.84;5009710;28;20065;-66
2022/04/29 11:25:06;;;;;;;3.20;2.90;;;;;;;21.27;31.77;101638.72;5010350;28;20394;-67
2022/04/29 11:27:40;;;;;;;2.97;2.38;;;;;;;21.08;30.74;101625.09;5023886;28;20050;-67
2022/04/29 11:30:23;;;;;;;3.47;2.30;;;;;;;21.28;33.22;101626.41;5008907;28;20069;-67
2022/04/29 11:32:54;;;;;;;2.88;2.63;;;;;;;21.42;32.48;101617.91;5007218;28;20400;-66
2022/04/29 11:35:23;;;;;;;4.78;3.20;;;;;;;21.34;30.36;101616.75;5008510;28;20060;-66
2022/04/29 11:37:53;;;;;;;3.58;2.55;;;;;;;21.54;31.97;101608.03;5006826;28;20049;-66
2022/04/29 11:40:21;;;;;;;4.72;2.78;;;;;;;21.74;32.41;101607.38;5005630;28;20054;-66
2022/04/29 11:42:50;;;;;;;7.43;2.75;;;;;;;21.71;33.22;101608.03;4993681;28;20047;-67
2022/04/29 11:45:23;;;;;;;2.88;2.67;;;;;;;21.72;31.42;101609.69;4990776;28;20038;-66
2022/04/29 11:48:02;;;;;;;5.35;2.70;;;;;;;21.56;32.64;101611.31;5005492;28;20042;-67
2022/04/29 11:50:36;;;;;;;4.22;2.70;;;;;;;21.57;30.51;101593.47;5007845;28;20053;-66
2022/04/29 11:53:10;;;;;;;3.42;2.92;;;;;;;21.62;30.17;101599.66;5004791;28;20512;-65
2022/04/29 11:55:39;;;;;;;3.40;3.10;;;;;;;21.82;30.98;101593.75;5008395;28;20054;-66
2022/04/29 11:58:11;;;;;;;3.63;3.22;;;;;;;22.13;30.13;101589.84;4997888;28;20042;-66
2022/04/29 12:00:39;;;;;;;3.35;3.05;;;;;;;22.24;31.54;101595.88;4995279;28;20409;-67
2022/04/29 12:03:21;;;;;;;3.53;2.85;;;;;;;22.05;30.25;101579.56;5022528;28;20548;-67
2022/04/29 12:05:50;;;;;;;2.70;2.50;;;;;;;22.07;31.76;101588.41;5014148;28;20057;-66
2022/04/29 12:08:21;;;;;;;3.17;2.88;;;;;;;22.10;31.39;101580.19;5011721;28;20072;-66
2022/04/29 12:10:53;;;;;;;2.75;2.55;;;;;;;22.18;31.19;101581.31;5021188;28;20053;-67
2022/04/29 12:13:21;;;;;;;7.32;3.38;;;;;;;22.32;32.99;101581.06;5013908;28;20050;-67
2022/04/29 12:15:56;;;;;;;7.32;3.33;;;;;;;22.51;32.10;101571.44;5021061;28;20061;-66
2022/04/29 12:18:42;;;;;;;3.80;3.25;;;;;;;22.35;31.33;101569.25;5012924;28;20053;-67
2022/04/29 12:21:24;;;;;;;4.25;2.75;;;;;;;22.47;31.22;101576.88;5011881;28;20049;-66
2022/04/29 12:23:53;;;;;;;2.65;2.45;;;;;;;22.45;32.22;101570.84;5013341;28;20046;-67
2022/04/29 12:26:21;;;;;;;4.68;2.95;;;;;;;22.71;31.62;101558.69;5014130;28;20053;-66